Time;durP1;ratioP1;P1;durP2;ratioP2;P2;SDS_P1;SDS_P2;PMS_P1;PMS_P2;Temp;Humidity;BMP_temperature;BMP_pressure;BME280_temperature;BME280_humidity;BME280_pressure;Samples;Min_cycle;Max_cycle;Signal;HPM_P1;HPM_P2
2023/10/08 00:02:03;;;;;;;0.00;0.00;;;;;;;15.53;100.00;100780.53;5071296;28;20208;-76
2023/10/08 00:04:29;;;;;;;0.00;0.00;;;;;;;16.00;100.00;100796.84;5070924;28;20178;-76
2023/10/08 00:06:54;;;;;;;0.00;0.00;;;;;;;16.20;99.96;100811.72;5071437;28;20178;-76
2023/10/08 00:09:20;;;;;;;0.00;0.00;;;;;;;15.31;99.28;100767.88;5070866;28;20206;-76
2023/10/08 00:11:52;;;;;;;0.00;0.00;;;;;;;16.05;98.80;100797.41;5070065;28;20187;-77
2023/10/08 00:14:21;;;;;;;0.00;0.00;;;;;;;15.24;98.99;100775.91;5071178;28;20179;-77
2023/10/08 00:16:49;;;;;;;0.00;0.00;;;;;;;15.43;100.00;100817.53;5071295;28;20270;-76
2023/10/08 00:19:17;;;;;;;0.00;0.00;;;;;;;15.45;100.00;100826.25;5070495;28;20289;-76
2023/10/08 00:21:45;;;;;;;0.00;0.00;;;;;;;15.57;100.00;100833.78;5071055;28;20183;-76
2023/10/08 00:24:12;;;;;;;0.00;0.00;;;;;;;16.06;100.00;100867.16;5070099;28;20550;-76
2023/10/08 00:26:40;;;;;;;0.00;0.00;;;;;;;15.74;99.36;100844.72;5071149;28;20667;-77
2023/10/08 00:29:16;;;;;;;0.00;0.00;;;;;;;15.71;99.38;100864.66;5065587;28;20186;-77
2023/10/08 00:31:45;;;;;;;0.00;0.00;;;;;;;15.63;99.46;100850.97;5070954;28;20174;-77
2023/10/08 00:34:14;;;;;;;0.57;0.00;;;;;;;15.42;100.00;100845.41;5065575;28;20171;-77
2023/10/08 00:36:41;;;;;;;0.00;0.00;;;;;;;15.67;100.00;100871.19;5071028;28;20186;-76
2023/10/08 00:39:13;;;;;;;0.00;0.00;;;;;;;15.45;100.00;100861.25;5073240;28;20256;-76
2023/10/08 00:41:45;;;;;;;0.00;0.00;;;;;;;16.38;99.40;100892.31;5074477;28;20540;-75
2023/10/08 00:44:30;;;;;;;0.00;0.00;;;;;;;16.72;97.12;100904.97;5074996;28;20524;-76
2023/10/08 00:46:57;;;;;;;0.00;0.00;;;;;;;16.48;95.23;100895.44;5066098;28;20183;-76
2023/10/08 00:49:25;;;;;;;0.00;0.00;;;;;;;15.89;96.89;100884.63;5074343;28;20194;-76
2023/10/08 00:52:19;;;;;;;0.00;0.00;;;;;;;15.33;99.53;100902.47;5073168;28;20677;-76
2023/10/08 00:57:29;;;;;;;0.10;0.10;;;;;;;14.72;100.00;100907.41;5074667;28;20179;-75
2023/10/08 00:59:57;;;;;;;0.00;0.00;;;;;;;15.03;100.00;100943.72;5073022;28;20210;-75
2023/10/08 01:02:42;;;;;;;0.00;0.00;;;;;;;15.06;100.00;100959.59;5074051;28;20171;-75
2023/10/08 01:05:10;;;;;;;0.00;0.00;;;;;;;15.15;100.00;100948.53;5073088;28;20181;-76
2023/10/08 01:07:35;;;;;;;0.00;0.00;;;;;;;15.54;100.00;100954.84;5074341;28;20262;-76
2023/10/08 01:10:10;;;;;;;0.00;0.00;;;;;;;15.61;100.00;100942.19;5074172;28;20718;-76
2023/10/08 01:12:43;;;;;;;0.00;0.00;;;;;;;15.41;100.00;100938.22;5074250;28;20182;-77
2023/10/08 01:18:16;;;;;;;0.00;0.00;;;;;;;15.34;100.00;101000.47;5051469;28;20183;-76
2023/10/08 01:21:08;;;;;;;0.00;0.00;;;;;;;14.89;100.00;100987.13;5060618;28;20271;-77
2023/10/08 01:23:31;;;;;;;0.00;0.00;;;;;;;15.28;100.00;101027.34;5073772;28;20560;-76
2023/10/08 01:26:22;;;;;;;0.00;0.00;;;;;;;15.13;100.00;101005.84;5072750;28;20555;-76
2023/10/08 01:28:43;;;;;;;0.00;0.00;;;;;;;14.37;100.00;100987.16;5073509;28;20214;-76
2023/10/08 01:31:12;;;;;;;0.00;0.00;;;;;;;14.23;100.00;100998.31;5073887;28;20584;-76
2023/10/08 01:33:38;;;;;;;0.00;0.00;;;;;;;14.23;100.00;101003.81;5073643;28;20182;-77
2023/10/08 01:36:04;;;;;;;0.00;0.00;;;;;;;14.14;100.00;100997.50;5073842;28;20180;-76
2023/10/08 01:38:32;;;;;;;0.43;0.20;;;;;;;13.32;100.00;100974.34;5073480;28;20195;-76
2023/10/08 01:41:02;;;;;;;0.00;0.00;;;;;;;13.23;100.00;100989.97;5071888;28;20655;-76
2023/10/08 01:43:28;;;;;;;0.07;0.03;;;;;;;13.49;100.00;101011.22;5073781;28;20269;-76
2023/10/08 01:45:54;;;;;;;0.57;0.10;;;;;;;13.10;99.76;100991.63;5073712;28;20261;-76
2023/10/08 01:48:20;;;;;;;0.00;0.00;;;;;;;13.42;100.00;101003.44;5073906;28;20194;-75
2023/10/08 01:50:47;;;;;;;0.63;0.30;;;;;;;13.14;99.72;100996.50;5072904;28;20167;-76
2023/10/08 01:53:15;;;;;;;8.17;0.53;;;;;;;13.28;99.23;101011.78;5073134;28;20189;-76
2023/10/08 01:55:49;;;;;;;0.00;0.00;;;;;;;13.35;98.58;101034.09;5073478;28;20678;-76
2023/10/08 01:58:18;;;;;;;0.00;0.00;;;;;;;13.96;96.23;101046.13;5072016;28;20185;-76
2023/10/08 02:00:48;;;;;;;0.00;0.00;;;;;;;13.99;94.25;101045.47;5072954;28;20282;-76
2023/10/08 02:03:18;;;;;;;0.00;0.00;;;;;;;14.15;92.90;101059.56;5073454;28;20210;-76
2023/10/08 02:05:45;;;;;;;0.00;0.00;;;;;;;13.47;92.77;101032.72;5072812;28;20266;-76
2023/10/08 02:08:12;;;;;;;0.00;0.00;;;;;;;14.25;92.13;101080.44;5073112;28;20179;-76
2023/10/08 02:10:42;;;;;;;0.00;0.00;;;;;;;13.91;91.08;101078.44;5072996;28;20174;-76
2023/10/08 02:13:09;;;;;;;0.00;0.00;;;;;;;14.63;90.30;101080.69;5072713;28;20183;-76
2023/10/08 02:15:43;;;;;;;0.00;0.00;;;;;;;14.96;89.08;101083.75;5072769;28;20178;-76
2023/10/08 02:18:08;;;;;;;0.10;0.10;;;;;;;14.72;87.41;101050.44;5072898;28;20178;-76
2023/10/08 02:20:33;;;;;;;0.00;0.00;;;;;;;15.08;86.63;101072.09;5072494;28;20206;-76
2023/10/08 02:22:59;;;;;;;0.00;0.00;;;;;;;15.30;86.06;101060.06;5072657;28;20189;-76
2023/10/08 02:25:25;;;;;;;0.00;0.00;;;;;;;15.69;85.29;101075.53;5072526;28;20178;-77
2023/10/08 02:27:51;;;;;;;0.00;0.00;;;;;;;15.44;85.22;101061.47;5065888;28;20186;-76
2023/10/08 02:30:17;;;;;;;0.00;0.00;;;;;;;15.50;85.47;101064.06;5072555;28;20573;-76
2023/10/08 02:32:43;;;;;;;0.00;0.00;;;;;;;15.67;85.41;101073.09;5069548;28;20225;-76
2023/10/08 02:35:12;;;;;;;0.00;0.00;;;;;;;15.57;85.37;101053.34;5070198;28;20651;-76
2023/10/08 02:37:45;;;;;;;0.00;0.00;;;;;;;15.34;85.36;101037.06;5069549;28;20167;-76
2023/10/08 02:40:19;;;;;;;0.00;0.00;;;;;;;15.38;85.58;101053.72;5067532;28;20697;-76
2023/10/08 02:42:46;;;;;;;0.00;0.00;;;;;;;15.20;85.61;101027.38;5063579;28;20216;-77
2023/10/08 02:45:13;;;;;;;0.00;0.00;;;;;;;15.32;85.88;101036.56;5072273;28;20251;-77
2023/10/08 02:47:41;;;;;;;0.00;0.00;;;;;;;15.14;85.87;101026.75;5071896;28;20176;-77
2023/10/08 02:50:08;;;;;;;0.00;0.00;;;;;;;15.06;86.37;101033.91;5070733;28;20194;-77
2023/10/08 02:52:33;;;;;;;0.00;0.00;;;;;;;14.97;86.70;101030.34;5071647;28;20184;-77
2023/10/08 02:55:00;;;;;;;0.00;0.00;;;;;;;15.03;86.45;101036.47;5072193;28;20183;-77
2023/10/08 02:57:29;;;;;;;0.10;0.10;;;;;;;14.87;86.79;101030.69;5072110;28;20694;-77
2023/10/08 02:59:54;;;;;;;0.40;0.20;;;;;;;14.66;87.54;101025.03;5071830;28;20183;-77
2023/10/08 03:02:21;;;;;;;0.00;0.00;;;;;;;14.57;88.95;101027.78;5071973;28;20182;-77
2023/10/08 03:04:48;;;;;;;0.00;0.00;;;;;;;14.71;89.38;101048.81;5072092;28;20568;-77
2023/10/08 03:07:33;;;;;;;0.00;0.00;;;;;;;14.74;90.00;101059.16;5071775;28;20643;-77
2023/10/08 03:10:06;;;;;;;0.00;0.00;;;;;;;14.66;90.26;101049.00;5071753;28;20244;-77
2023/10/08 03:12:35;;;;;;;0.00;0.00;;;;;;;14.82;90.59;101039.91;5071643;28;20170;-77
2023/10/08 03:15:13;;;;;;;0.20;0.20;;;;;;;14.87;90.32;101041.69;5071898;28;20186;-77
2023/10/08 03:17:39;;;;;;;2.90;1.60;;;;;;;14.85;90.64;101033.75;5071717;28;20674;-77
2023/10/08 03:20:29;;;;;;;0.07;0.07;;;;;;;15.11;90.33;101039.22;5072052;28;20225;-77
2023/10/08 03:22:50;;;;;;;0.00;0.00;;;;;;;15.06;89.71;101035.84;5071054;28;20182;-77
2023/10/08 03:25:16;;;;;;;0.00;0.00;;;;;;;15.00;89.38;101046.19;5071649;28;20182;-77
2023/10/08 03:27:42;;;;;;;0.13;0.13;;;;;;;14.62;90.37;101029.59;5071558;28;20231;-77
2023/10/08 03:30:14;;;;;;;0.00;0.00;;;;;;;14.70;90.84;101060.94;5071536;28;20198;-78
2023/10/08 03:32:41;;;;;;;0.00;0.00;;;;;;;14.81;90.94;101071.31;5071544;28;20213;-77
2023/10/08 03:35:10;;;;;;;0.00;0.00;;;;;;;15.06;90.56;101082.63;5071633;28;20200;-77
2023/10/08 03:37:45;;;;;;;0.00;0.00;;;;;;;15.22;89.97;101102.19;5071434;28;20231;-77
2023/10/08 03:40:42;;;;;;;0.00;0.00;;;;;;;15.13;89.47;101096.69;5071461;28;20202;-78
2023/10/08 03:43:15;;;;;;;0.10;0.10;;;;;;;14.98;89.71;101098.00;5071404;28;20178;-77
2023/10/08 03:45:59;;;;;;;0.00;0.00;;;;;;;14.96;90.27;101107.72;5071545;28;20182;-78
2023/10/08 03:48:25;;;;;;;0.00;0.00;;;;;;;14.80;90.07;101102.72;5071440;28;20207;-77
2023/10/08 03:51:06;;;;;;;0.20;0.20;;;;;;;14.74;90.26;101092.97;5071525;28;20175;-77
2023/10/08 03:53:37;;;;;;;0.00;0.00;;;;;;;14.66;89.98;101080.06;5071438;28;20189;-77
2023/10/08 03:56:05;;;;;;;0.00;0.00;;;;;;;14.47;90.62;101088.63;5071527;28;20183;-77
2023/10/08 03:58:40;;;;;;;0.33;0.33;;;;;;;14.36;91.09;101089.22;5071750;28;20229;-77
2023/10/08 04:01:09;;;;;;;1.03;0.63;;;;;;;14.52;91.15;101104.13;5071475;28;20190;-77
2023/10/08 04:06:16;;;;;;;0.10;0.10;;;;;;;14.19;91.14;101090.00;5071371;28;20182;-77
2023/10/08 04:08:55;;;;;;;0.77;0.47;;;;;;;14.10;91.57;101078.16;5069101;28;20782;-77
2023/10/08 04:11:35;;;;;;;0.00;0.00;;;;;;;14.11;92.07;101096.25;5056410;28;20179;-77
2023/10/08 04:14:04;;;;;;;3.93;0.27;;;;;;;13.98;92.31;101103.50;5070357;28;20272;-77
2023/10/08 04:16:30;;;;;;;0.27;0.27;;;;;;;13.67;92.62;101092.53;5069899;28;20178;-77
2023/10/08 04:18:56;;;;;;;0.87;0.40;;;;;;;13.38;93.31;101085.63;5074103;28;20243;-77
2023/10/08 04:21:27;;;;;;;0.00;0.00;;;;;;;13.46;94.04;101114.25;5074846;28;20190;-77
2023/10/08 04:23:53;;;;;;;0.00;0.00;;;;;;;13.40;94.49;101110.00;5075110;28;20178;-77
2023/10/08 04:26:23;;;;;;;1.83;0.93;;;;;;;13.46;95.01;101114.25;5074892;28;20194;-77
2023/10/08 04:28:57;;;;;;;0.20;0.20;;;;;;;13.42;95.21;101118.72;5075036;28;20619;-77
2023/10/08 04:31:28;;;;;;;3.20;3.00;;;;;;;13.49;95.08;101116.34;5074794;28;20202;-78
2023/10/08 04:33:54;;;;;;;3.70;0.87;;;;;;;13.57;95.39;101136.72;5074846;28;20596;-77
2023/10/08 04:36:20;;;;;;;0.00;0.00;;;;;;;13.69;95.35;101136.97;5074705;28;20178;-77
2023/10/08 04:38:48;;;;;;;3.23;1.97;;;;;;;13.76;95.27;101139.28;5074747;28;20221;-77
2023/10/08 04:41:18;;;;;;;0.10;0.10;;;;;;;13.69;95.37;101134.22;5074664;28;20206;-77
2023/10/08 04:43:44;;;;;;;0.70;0.60;;;;;;;13.81;95.12;101142.69;5072303;28;20186;-76
2023/10/08 04:48:53;;;;;;;0.47;0.10;;;;;;;13.60;95.10;101123.22;5068418;28;20208;-77
2023/10/08 04:51:21;;;;;;;0.00;0.00;;;;;;;13.60;95.68;101139.69;5071040;28;20183;-77
2023/10/08 04:53:47;;;;;;;5.73;0.50;;;;;;;13.47;96.28;101139.75;5060378;28;20174;-77
2023/10/08 04:56:13;;;;;;;0.73;0.73;;;;;;;13.69;96.23;101148.75;5073152;28;20190;-77
2023/10/08 04:58:40;;;;;;;0.23;0.23;;;;;;;13.59;96.19;101143.53;5072773;28;20259;-77
2023/10/08 05:01:27;;;;;;;0.47;0.30;;;;;;;13.72;96.39;101152.00;5074290;28;20198;-77
2023/10/08 05:14:34;;;;;;;6.33;1.30;;;;;;;13.67;96.13;101161.19;5074044;28;20647;-77
2023/10/08 05:17:09;;;;;;;0.17;0.17;;;;;;;13.74;95.92;101157.97;5068477;28;20190;-77
2023/10/08 05:22:18;;;;;;;0.00;0.00;;;;;;;14.17;94.52;101185.66;5065955;28;20202;-77
2023/10/08 05:25:07;;;;;;;0.20;0.10;;;;;;;14.23;93.61;101192.66;5071379;28;20170;-77
2023/10/08 05:33:06;;;;;;;0.30;0.10;;;;;;;14.08;93.43;101190.31;5073903;28;20193;-77
2023/10/08 05:38:30;;;;;;;0.00;0.00;;;;;;;14.06;94.52;101223.63;5073627;28;20201;-76
2023/10/08 05:44:14;;;;;;;0.00;0.00;;;;;;;14.05;94.44;101213.75;5073493;28;20610;-75
2023/10/08 05:49:03;;;;;;;1.90;1.27;;;;;;;14.06;94.53;101242.84;5059597;28;20198;-76
2023/10/08 06:07:56;;;;;;;4.33;0.73;;;;;;;13.90;96.32;101272.66;5064123;28;20186;-75
2023/10/08 06:13:44;;;;;;;0.03;0.03;;;;;;;13.84;96.25;101273.91;5072108;28;20264;-76
2023/10/08 06:18:26;;;;;;;0.07;0.07;;;;;;;14.06;96.50;101297.81;5062704;28;20671;-76
2023/10/08 06:20:56;;;;;;;0.47;0.47;;;;;;;14.08;96.37;101290.06;5070504;28;20200;-76
2023/10/08 06:23:25;;;;;;;0.17;0.17;;;;;;;13.96;96.22;101276.88;5069560;28;20190;-76
2023/10/08 06:25:58;;;;;;;0.20;0.20;;;;;;;14.00;96.55;101294.38;5065953;28;20179;-76
2023/10/08 06:28:25;;;;;;;0.00;0.00;;;;;;;14.06;96.58;101300.56;5071673;28;20260;-76
2023/10/08 06:30:56;;;;;;;0.00;0.00;;;;;;;14.19;95.99;101307.09;5066909;28;20265;-76
2023/10/08 06:33:30;;;;;;;0.00;0.00;;;;;;;14.27;96.10;101301.66;5068619;28;20257;-75
2023/10/08 06:36:02;;;;;;;0.50;0.50;;;;;;;14.28;96.07;101303.25;5072173;28;20192;-76
2023/10/08 06:38:38;;;;;;;0.10;0.10;;;;;;;14.39;96.02;101319.50;5072908;28;20285;-76
2023/10/08 06:43:49;;;;;;;0.00;0.00;;;;;;;14.41;95.46;101311.75;5071877;28;20194;-76
2023/10/08 06:46:18;;;;;;;0.30;0.30;;;;;;;14.25;95.85;101311.34;5072421;28;20205;-76
2023/10/08 06:48:45;;;;;;;0.00;0.00;;;;;;;14.17;96.47;101321.13;5072057;28;20285;-76
2023/10/08 06:51:17;;;;;;;0.00;0.00;;;;;;;14.35;96.88;101332.25;5072140;28;20182;-76
2023/10/08 06:53:47;;;;;;;0.87;0.73;;;;;;;14.46;96.74;101334.44;5063305;28;20178;-76
2023/10/08 06:56:16;;;;;;;0.07;0.07;;;;;;;14.33;96.71;101334.50;5072085;28;20651;-75
2023/10/08 06:58:48;;;;;;;0.20;0.20;;;;;;;14.35;96.85;101338.56;5060221;28;20206;-76
2023/10/08 07:01:20;;;;;;;0.13;0.13;;;;;;;14.30;97.30;101355.97;5072116;28;20206;-76
2023/10/08 07:03:50;;;;;;;3.20;0.60;;;;;;;14.27;97.61;101366.81;5065346;28;20647;-76
2023/10/08 07:06:33;;;;;;;0.40;0.40;;;;;;;14.28;97.77;101358.25;5064811;28;20175;-76
2023/10/08 07:09:05;;;;;;;0.20;0.20;;;;;;;14.48;97.84;101378.94;5065736;28;20206;-76
2023/10/08 07:11:34;;;;;;;0.00;0.00;;;;;;;14.58;97.58;101375.91;5060590;28;20274;-76
2023/10/08 07:14:01;;;;;;;0.33;0.33;;;;;;;14.48;97.84;101361.63;5071768;28;20174;-76
2023/10/08 07:16:28;;;;;;;4.47;1.50;;;;;;;14.55;97.85;101373.81;5072127;28;20532;-76
2023/10/08 07:19:01;;;;;;;0.00;0.00;;;;;;;14.72;97.81;101383.25;5070556;28;20209;-76
2023/10/08 07:21:29;;;;;;;0.07;0.07;;;;;;;14.85;97.81;101391.41;5070761;28;20632;-76
2023/10/08 07:23:59;;;;;;;0.40;0.23;;;;;;;14.71;97.45;101378.88;5067419;28;20569;-76
2023/10/08 07:26:37;;;;;;;0.10;0.10;;;;;;;14.64;97.38;101390.38;5060380;28;20193;-76
2023/10/08 07:29:09;;;;;;;0.00;0.00;;;;;;;14.73;97.66;101402.19;5071698;28;20217;-76
2023/10/08 07:31:41;;;;;;;0.00;0.00;;;;;;;14.86;97.50;101415.06;5070123;28;20182;-76
2023/10/08 07:34:17;;;;;;;0.00;0.00;;;;;;;14.87;97.92;101418.63;5071809;28;20214;-76
2023/10/08 07:36:44;;;;;;;0.40;0.40;;;;;;;14.78;98.29;101424.09;5070585;28;20239;-76
2023/10/08 07:39:22;;;;;;;0.00;0.00;;;;;;;14.97;97.74;101426.59;5071619;28;20217;-76
2023/10/08 07:41:48;;;;;;;1.60;0.40;;;;;;;15.20;96.79;101432.88;5071614;28;20174;-76
2023/10/08 07:44:13;;;;;;;0.10;0.10;;;;;;;14.86;96.14;101397.72;5070491;28;20662;-76
2023/10/08 07:46:38;;;;;;;0.00;0.00;;;;;;;14.93;96.44;101389.03;5068499;28;20193;-76
2023/10/08 07:49:05;;;;;;;0.00;0.00;;;;;;;15.11;96.06;101404.47;5074011;28;20682;-76
2023/10/08 07:51:30;;;;;;;0.00;0.00;;;;;;;15.12;95.75;101406.91;5066052;28;20167;-76
2023/10/08 07:53:56;;;;;;;0.10;0.10;;;;;;;15.23;95.39;101418.47;5062412;28;20600;-76
2023/10/08 07:56:23;;;;;;;1.07;0.83;;;;;;;15.29;94.60;101416.34;5067181;28;20652;-76
2023/10/08 07:58:49;;;;;;;0.00;0.00;;;;;;;15.51;94.00;101420.97;5064401;28;20194;-76
2023/10/08 08:01:14;;;;;;;0.33;0.33;;;;;;;15.36;93.93;101412.03;5069820;28;20571;-76
2023/10/08 08:03:41;;;;;;;0.10;0.10;;;;;;;15.36;94.37;101423.03;5068338;28;20189;-77
2023/10/08 08:06:08;;;;;;;2.23;0.33;;;;;;;15.13;93.90;101425.06;5067714;28;20171;-77
2023/10/08 08:08:35;;;;;;;5.00;0.87;;;;;;;15.24;93.74;101435.78;5068620;28;20206;-77
2023/10/08 08:11:11;;;;;;;1.00;1.00;;;;;;;15.40;93.36;101442.47;5072672;28;20166;-77
2023/10/08 08:13:44;;;;;;;0.00;0.00;;;;;;;15.44;93.16;101443.47;5071336;28;20179;-77
2023/10/08 08:16:17;;;;;;;0.30;0.30;;;;;;;15.73;92.31;101453.94;5076947;28;20220;-77
2023/10/08 08:18:47;;;;;;;0.07;0.07;;;;;;;15.73;91.58;101446.47;5076035;28;20285;-77
2023/10/08 08:21:16;;;;;;;0.83;0.73;;;;;;;15.45;91.51;101425.78;5076590;28;20308;-77
2023/10/08 08:23:49;;;;;;;0.27;0.27;;;;;;;15.66;90.42;101431.56;5075976;28;20650;-77
2023/10/08 08:26:32;;;;;;;0.00;0.00;;;;;;;15.66;89.48;101437.06;5075868;28;20202;-77
2023/10/08 08:29:01;;;;;;;0.47;0.30;;;;;;;16.03;88.79;101468.72;5087941;22;20301;-85
2023/10/08 08:31:35;;;;;;;0.00;0.00;;;;;;;16.19;88.56;101475.38;5046414;28;20199;-85
2023/10/08 08:34:10;;;;;;;8.00;1.20;;;;;;;15.86;87.26;101452.97;5048471;28;20182;-87
2023/10/08 08:36:39;;;;;;;0.00;0.00;;;;;;;16.13;86.46;101451.88;5049906;28;20190;-87
2023/10/08 08:39:08;;;;;;;0.30;0.30;;;;;;;16.22;85.92;101443.63;5036869;28;20204;-86
2023/10/08 08:41:41;;;;;;;0.00;0.00;;;;;;;16.58;85.69;101465.31;5031352;28;20298;-86
2023/10/08 08:44:08;;;;;;;0.00;0.00;;;;;;;16.44;84.00;101450.88;5036546;28;20184;-86
2023/10/08 08:46:37;;;;;;;0.00;0.00;;;;;;;16.57;81.48;101458.97;5023615;28;20735;-87
2023/10/08 08:49:07;;;;;;;0.00;0.00;;;;;;;16.55;79.31;101457.69;5020356;28;20679;-88
2023/10/08 08:51:37;;;;;;;0.00;0.00;;;;;;;16.44;77.88;101437.91;5041148;28;20621;-86
2023/10/08 08:54:07;;;;;;;0.00;0.00;;;;;;;16.63;76.87;101443.88;5041748;28;20638;-85
2023/10/08 08:56:38;;;;;;;0.00;0.00;;;;;;;16.74;77.15;101457.34;5027129;28;20192;-87
2023/10/08 08:59:11;;;;;;;0.00;0.00;;;;;;;16.94;76.66;101473.25;5031033;28;20211;-86
2023/10/08 09:01:41;;;;;;;4.87;0.47;;;;;;;16.59;76.71;101451.19;5028759;28;20744;-85
2023/10/08 09:04:10;;;;;;;0.00;0.00;;;;;;;16.31;76.50;101433.38;5032283;28;20181;-85
2023/10/08 09:06:44;;;;;;;0.00;0.00;;;;;;;16.78;77.60;101474.88;5025379;28;20226;-86
2023/10/08 09:09:22;;;;;;;0.00;0.00;;;;;;;16.98;77.52;101485.22;5041302;28;20214;-86
2023/10/08 09:11:52;;;;;;;0.00;0.00;;;;;;;17.07;75.70;101475.00;5026101;28;20195;-86
2023/10/08 09:14:26;;;;;;;0.00;0.00;;;;;;;17.02;75.19;101466.06;5032731;28;20195;-86
2023/10/08 09:17:04;;;;;;;0.00;0.00;;;;;;;16.97;74.83;101469.81;5027258;28;20258;-86
2023/10/08 09:19:29;;;;;;;0.33;0.33;;;;;;;16.85;74.33;101462.19;5032817;28;20207;-87
2023/10/08 09:22:12;;;;;;;0.00;0.00;;;;;;;16.92;74.81;101473.56;5032255;28;20438;-86
2023/10/08 09:24:39;;;;;;;5.73;0.20;;;;;;;16.22;70.15;101425.13;5024778;28;20191;-87
2023/10/08 09:27:14;;;;;;;0.00;0.00;;;;;;;16.46;69.85;101446.66;5033339;28;20188;-86
2023/10/08 09:29:45;;;;;;;0.00;0.00;;;;;;;16.90;67.98;101475.00;5024240;28;20651;-86
2023/10/08 09:32:23;;;;;;;1.60;1.50;;;;;;;17.13;69.23;101495.75;5025667;28;20195;-86
2023/10/08 09:34:58;;;;;;;0.00;0.00;;;;;;;17.18;70.06;101490.03;5037302;28;20190;-87
2023/10/08 09:37:27;;;;;;;8.83;1.07;;;;;;;17.23;70.89;101483.53;5052177;28;20703;-85
2023/10/08 09:39:56;;;;;;;0.00;0.00;;;;;;;17.48;69.49;101501.13;5041861;28;20609;-85
2023/10/08 09:42:25;;;;;;;0.00;0.00;;;;;;;17.72;68.59;101501.38;5039730;28;20199;-86
2023/10/08 09:44:54;;;;;;;0.00;0.00;;;;;;;17.06;67.95;101455.97;5032648;28;20619;-86
2023/10/08 09:47:28;;;;;;;0.00;0.00;;;;;;;16.75;69.11;101439.66;5033441;28;20179;-86
2023/10/08 09:50:01;;;;;;;0.53;0.10;;;;;;;16.59;70.40;101455.91;5032570;28;20217;-86
2023/10/08 09:53:10;;;;;;;0.00;0.00;;;;;;;16.94;70.74;101482.31;5034126;28;20190;-86
2023/10/08 09:55:40;;;;;;;0.00;0.00;;;;;;;16.31;68.93;101414.06;4995405;28;20210;-86
2023/10/08 09:58:14;;;;;;;0.00;0.00;;;;;;;17.17;68.13;101466.31;5032187;28;20203;-86
2023/10/08 10:00:44;;;;;;;0.00;0.00;;;;;;;17.57;66.60;101468.75;5030696;28;20232;-86
2023/10/08 10:03:13;;;;;;;0.00;0.00;;;;;;;17.69;66.25;101463.34;5026694;28;20167;-86
2023/10/08 10:05:45;;;;;;;0.00;0.00;;;;;;;18.00;65.45;101471.25;5032963;28;20194;-86
2023/10/08 10:08:17;;;;;;;0.00;0.00;;;;;;;17.80;63.78;101448.00;5031894;28;20212;-86
2023/10/08 10:10:47;;;;;;;0.00;0.00;;;;;;;17.88;63.74;101453.78;5031388;28;20617;-86
2023/10/08 10:13:20;;;;;;;4.90;1.70;;;;;;;17.60;65.31;101442.38;5031920;28;20188;-86
2023/10/08 10:18:36;;;;;;;0.00;0.00;;;;;;;17.62;64.13;101418.78;5033152;28;20218;-86
2023/10/08 10:21:16;;;;;;;0.10;0.10;;;;;;;17.45;63.24;101397.59;5031725;28;20208;-86
2023/10/08 10:23:44;;;;;;;0.00;0.00;;;;;;;17.91;63.40;101453.91;5031489;28;20195;-86
2023/10/08 10:26:40;;;;;;;0.00;0.00;;;;;;;18.12;61.72;101443.69;5024957;28;20184;-86
2023/10/08 10:29:14;;;;;;;0.00;0.00;;;;;;;18.14;62.57;101462.69;5025454;28;20243;-86
2023/10/08 10:32:00;;;;;;;0.30;0.30;;;;;;;17.97;61.45;101440.72;5028685;28;20218;-86
2023/10/08 10:34:31;;;;;;;0.00;0.00;;;;;;;17.74;61.50;101429.16;5006755;28;20200;-86
2023/10/08 10:36:59;;;;;;;0.00;0.00;;;;;;;17.41;61.64;101421.53;5031547;28;20194;-86
2023/10/08 10:39:39;;;;;;;0.00;0.00;;;;;;;17.92;61.85;101469.34;5030539;28;20223;-86
2023/10/08 10:42:20;;;;;;;0.00;0.00;;;;;;;18.43;61.61;101506.88;5031285;28;20181;-86
2023/10/08 10:44:49;;;;;;;0.00;0.00;;;;;;;17.64;61.34;101443.31;5031335;28;20270;-86
2023/10/08 10:47:27;;;;;;;0.00;0.00;;;;;;;17.91;61.85;101469.69;5032322;28;20180;-86
2023/10/08 10:52:32;;;;;;;0.00;0.00;;;;;;;18.34;61.16;101488.72;5032059;28;20183;-86
2023/10/08 11:03:25;;;;;;;0.07;0.07;;;;;;;18.13;61.64;101461.91;5032156;28;20206;-86
2023/10/08 11:05:59;;;;;;;0.00;0.00;;;;;;;18.48;60.68;101461.59;5031591;28;20188;-85
2023/10/08 11:08:37;;;;;;;0.00;0.00;;;;;;;18.60;59.98;101469.13;5032144;28;20227;-86
2023/10/08 11:11:05;;;;;;;0.00;0.00;;;;;;;18.70;59.72;101461.25;5030483;28;20210;-86
2023/10/08 11:13:39;;;;;;;0.77;0.30;;;;;;;18.71;58.93;101467.59;5030269;28;20188;-86
2023/10/08 11:16:09;;;;;;;0.00;0.00;;;;;;;19.01;58.95;101493.16;5030876;28;20183;-86
2023/10/08 11:18:57;;;;;;;0.00;0.00;;;;;;;19.14;58.99;101458.78;5030232;28;20204;-87
2023/10/08 11:21:24;;;;;;;0.00;0.00;;;;;;;18.87;58.30;101413.16;5030688;28;20215;-85
2023/10/08 11:23:53;;;;;;;0.00;0.00;;;;;;;18.85;58.88;101418.25;5030277;28;20207;-86
2023/10/08 11:26:32;;;;;;;0.00;0.00;;;;;;;19.16;58.88;101469.53;5030531;28;20270;-86
2023/10/08 11:29:14;;;;;;;0.00;0.00;;;;;;;19.12;58.60;101469.41;5030549;28;20231;-86
2023/10/08 11:31:41;;;;;;;0.00;0.00;;;;;;;18.91;58.47;101418.81;5031732;28;20183;-86
2023/10/08 11:34:09;;;;;;;0.00;0.00;;;;;;;18.63;58.70;101394.53;5029629;28;20195;-86
2023/10/08 11:36:52;;;;;;;0.00;0.00;;;;;;;19.07;59.98;101428.06;5030444;28;20192;-86
2023/10/08 11:42:25;;;;;;;0.00;0.00;;;;;;;18.32;58.76;101400.53;5032035;28;20195;-86
2023/10/08 11:44:54;;;;;;;0.00;0.00;;;;;;;18.43;58.38;101412.81;5030113;28;20203;-86
2023/10/08 11:47:22;;;;;;;0.00;0.00;;;;;;;18.79;59.69;101454.78;5030782;28;20270;-86
2023/10/08 11:49:57;;;;;;;0.00;0.00;;;;;;;19.34;58.70;101473.69;5030121;28;20200;-86
2023/10/08 11:52:23;;;;;;;0.00;0.00;;;;;;;19.40;57.53;101429.94;5030372;28;20187;-86
2023/10/08 11:54:52;;;;;;;0.30;0.30;;;;;;;18.98;57.27;101396.91;5030168;28;20191;-86
2023/10/08 11:57:21;;;;;;;0.20;0.20;;;;;;;18.97;58.76;101392.53;5030390;28;20668;-86
2023/10/08 11:59:54;;;;;;;0.37;0.10;;;;;;;18.97;56.92;101370.38;5028069;28;20231;-86
2023/10/08 12:02:26;;;;;;;0.00;0.00;;;;;;;19.10;57.42;101371.19;5030129;28;20207;-86
2023/10/08 12:04:58;;;;;;;0.43;0.43;;;;;;;19.26;57.47;101378.47;5047231;28;20661;-86
2023/10/08 12:07:27;;;;;;;0.00;0.00;;;;;;;19.15;56.26;101382.03;5038295;28;20219;-85
2023/10/08 12:10:01;;;;;;;0.00;0.00;;;;;;;19.56;57.67;101434.47;5043916;28;20208;-87
2023/10/08 12:12:35;;;;;;;0.00;0.00;;;;;;;19.07;55.87;101371.84;5047151;28;20179;-87
2023/10/08 12:15:19;;;;;;;0.00;0.00;;;;;;;19.03;56.59;101378.09;5044868;28;20248;-86
2023/10/08 12:18:11;;;;;;;0.00;0.00;;;;;;;19.26;56.47;101389.53;5041234;28;20171;-85
2023/10/08 12:20:46;;;;;;;0.00;0.00;;;;;;;20.00;56.06;101423.53;5029654;28;20196;-87
2023/10/08 12:23:29;;;;;;;0.00;0.00;;;;;;;19.58;54.64;101375.91;5021078;28;20274;-86
2023/10/08 12:26:03;;;;;;;0.00;0.00;;;;;;;19.75;54.89;101388.69;5024624;28;20565;-86
2023/10/08 12:28:28;;;;;;;0.00;0.00;;;;;;;19.55;54.73;101376.59;5028807;28;20195;-86
2023/10/08 12:30:54;;;;;;;0.50;0.33;;;;;;;19.23;55.72;101364.47;5026948;28;20263;-86
2023/10/08 12:33:29;;;;;;;0.10;0.10;;;;;;;19.40;56.13;101380.88;5031379;28;20183;-86
2023/10/08 12:36:05;;;;;;;5.50;0.57;;;;;;;19.09;56.96;101361.25;5030620;28;20232;-86
2023/10/08 12:38:36;;;;;;;0.00;0.00;;;;;;;18.94;56.81;101349.69;5034831;28;20226;-85
2023/10/08 12:41:11;;;;;;;0.43;0.43;;;;;;;19.04;56.83;101353.97;5033493;28;20612;-85
2023/10/08 12:43:38;;;;;;;0.00;0.00;;;;;;;19.00;56.42;101342.78;5033247;28;20184;-85
2023/10/08 12:46:04;;;;;;;0.00;0.00;;;;;;;18.76;56.52;101337.22;5033259;28;20183;-86
2023/10/08 12:48:30;;;;;;;0.33;0.30;;;;;;;18.72;57.47;101328.00;5025936;28;20614;-86
2023/10/08 12:51:06;;;;;;;0.00;0.00;;;;;;;18.77;56.80;101315.88;5033864;28;20275;-86
2023/10/08 12:53:37;;;;;;;0.00;0.00;;;;;;;19.20;58.31;101343.00;5033017;28;20214;-86
2023/10/08 12:56:21;;;;;;;0.00;0.00;;;;;;;19.32;57.62;101335.47;5033307;28;20242;-86
2023/10/08 12:58:53;;;;;;;0.00;0.00;;;;;;;19.37;56.80;101323.34;5033223;28;20710;-87
2023/10/08 13:01:29;;;;;;;;;;;;;;;;;;;;;
2023/10/08 13:04:00;;;;;;;0.00;0.00;;;;;;;19.33;56.45;101298.31;5034708;28;20171;-87
2023/10/08 13:06:30;;;;;;;0.00;0.00;;;;;;;19.71;55.49;101290.72;5033091;28;20190;-86